createdAt,value
2019-03-16T00:00:17.925Z,32.70
2019-03-16T00:02:46.734Z,32.40
2019-03-16T00:05:15.605Z,32.40
2019-03-16T00:07:44.459Z,31.80
2019-03-16T00:10:13.434Z,32.40
2019-03-16T00:12:42.324Z,32.50
2019-03-16T00:15:11.222Z,32.50
2019-03-16T00:17:40.168Z,32.00
2019-03-16T00:20:10.737Z,32.70
2019-03-16T00:22:39.610Z,32.60
2019-03-16T00:25:09.489Z,32.40
2019-03-16T00:27:38.504Z,31.70
2019-03-16T00:30:12.528Z,32.10
2019-03-16T00:32:41.407Z,32.10
2019-03-16T00:35:10.323Z,32.00
2019-03-16T00:37:39.625Z,31.50
2019-03-16T00:40:12.773Z,32.00
2019-03-16T00:42:41.736Z,32.00
2019-03-16T00:45:12.016Z,31.80
2019-03-16T00:47:40.917Z,31.30
2019-03-16T00:50:11.573Z,31.30
2019-03-16T00:52:40.526Z,31.70
2019-03-16T00:55:10.953Z,31.70
2019-03-16T00:57:40.014Z,31.50
2019-03-16T01:00:12.037Z,31.40
2019-03-16T01:02:41.095Z,31.30
2019-03-16T01:05:09.939Z,31.30
2019-03-16T01:07:38.803Z,31.20
2019-03-16T01:10:09.099Z,30.80
2019-03-16T01:12:37.961Z,30.80
2019-03-16T01:15:09.445Z,30.70
2019-03-16T01:17:38.364Z,30.80
2019-03-16T01:20:09.656Z,30.60
2019-03-16T01:22:38.605Z,30.70
2019-03-16T01:25:08.297Z,30.60
2019-03-16T01:27:37.161Z,30.60
2019-03-16T01:30:08.909Z,30.70
2019-03-16T01:32:40.895Z,30.40
2019-03-16T01:35:08.261Z,30.40
2019-03-16T01:37:37.157Z,30.30
2019-03-16T01:40:08.428Z,30.30
2019-03-16T01:42:37.312Z,30.40
2019-03-16T01:45:10.342Z,30.30
2019-03-16T01:47:39.131Z,30.30
2019-03-16T01:50:09.931Z,30.30
2019-03-16T01:52:39.044Z,30.30
2019-03-16T01:55:11.168Z,30.30
2019-03-16T01:57:40.112Z,29.90
2019-03-16T02:00:13.868Z,30.20
2019-03-16T02:02:54.435Z,30.20
2019-03-16T02:05:13.559Z,30.50
2019-03-16T02:07:42.512Z,30.30
2019-03-16T02:10:11.428Z,30.20
2019-03-16T02:12:40.432Z,30.30
2019-03-16T02:15:09.536Z,30.30
2019-03-16T02:17:38.344Z,30.40
2019-03-16T02:20:08.638Z,28.90
2019-03-16T02:22:37.485Z,30.40
2019-03-16T02:25:07.848Z,30.40
2019-03-16T02:27:36.700Z,30.30
2019-03-16T02:30:08.313Z,30.40
2019-03-16T02:32:37.205Z,30.40
2019-03-16T02:35:07.392Z,30.50
2019-03-16T02:37:36.267Z,30.60
2019-03-16T02:40:07.349Z,30.60
2019-03-16T02:42:36.281Z,30.90
2019-03-16T02:45:11.246Z,30.80
2019-03-16T02:47:40.065Z,30.20
2019-03-16T02:50:10.647Z,30.80
2019-03-16T02:52:39.581Z,30.80
2019-03-16T02:55:09.625Z,31.00
2019-03-16T02:57:38.498Z,30.40
2019-03-16T03:00:14.333Z,31.10
2019-03-16T03:02:43.242Z,31.20
2019-03-16T03:05:12.204Z,31.40
2019-03-16T03:07:41.137Z,30.80
2019-03-16T03:10:12.981Z,31.50
2019-03-16T03:12:41.923Z,31.70
2019-03-16T03:15:10.934Z,31.70
2019-03-16T03:17:39.781Z,31.00
2019-03-16T03:20:11.815Z,31.80
2019-03-16T03:22:40.654Z,31.70
2019-03-16T03:25:09.681Z,31.80
2019-03-16T03:27:38.532Z,31.20
2019-03-16T03:30:15.082Z,32.00
2019-03-16T03:32:43.960Z,32.40
2019-03-16T03:35:12.825Z,32.60
2019-03-16T03:37:41.830Z,31.60
2019-03-16T03:40:11.695Z,32.20
2019-03-16T03:42:40.684Z,32.30
2019-03-16T03:45:11.399Z,32.20
2019-03-16T03:47:40.282Z,31.70
2019-03-16T03:50:11.423Z,32.40
2019-03-16T03:52:40.271Z,32.20
2019-03-16T03:55:11.078Z,32.20
2019-03-16T03:57:39.991Z,29.70
2019-03-16T04:00:16.744Z,32.20
2019-03-16T04:02:45.831Z,32.10
2019-03-16T04:05:14.826Z,31.80
2019-03-16T04:07:43.685Z,31.30
2019-03-16T04:10:13.376Z,31.80
2019-03-16T04:12:42.257Z,31.80
2019-03-16T04:15:12.326Z,32.10
2019-03-16T04:17:41.099Z,31.30
2019-03-16T04:20:14.353Z,31.90
2019-03-16T04:22:43.323Z,31.80
2019-03-16T04:25:12.266Z,31.90
2019-03-16T04:27:41.128Z,31.30
2019-03-16T04:30:11.939Z,31.90
2019-03-16T04:32:40.823Z,32.10
2019-03-16T04:35:09.947Z,32.00
2019-03-16T04:37:38.777Z,31.30
2019-03-16T04:40:09.694Z,31.80
2019-03-16T04:42:38.606Z,31.40
2019-03-16T04:45:11.535Z,32.30
2019-03-16T04:47:40.379Z,31.40
2019-03-16T04:50:13.532Z,32.10
2019-03-16T04:52:42.377Z,31.90
2019-03-16T04:55:11.251Z,32.00
2019-03-16T04:57:41.073Z,31.30
2019-03-16T05:00:12.046Z,31.90
2019-03-16T05:02:40.861Z,30.20
2019-03-16T05:05:09.804Z,30.00
2019-03-16T05:07:38.565Z,29.50
2019-03-16T05:10:09.969Z,29.50
2019-03-16T05:12:38.816Z,29.80
2019-03-16T05:15:09.062Z,29.20
2019-03-16T05:17:37.991Z,29.20
2019-03-16T05:20:11.445Z,29.60
2019-03-16T05:22:40.317Z,29.90
2019-03-16T05:25:10.514Z,30.20
2019-03-16T05:27:39.356Z,29.90
2019-03-16T05:30:12.945Z,30.80
2019-03-16T05:32:41.817Z,31.10
2019-03-16T05:35:10.770Z,31.30
2019-03-16T05:37:39.622Z,30.70
2019-03-16T05:40:10.452Z,31.40
2019-03-16T05:42:39.301Z,31.40
2019-03-16T05:45:09.039Z,31.30
2019-03-16T05:47:37.881Z,30.70
2019-03-16T05:50:09.509Z,31.70
2019-03-16T05:52:38.345Z,31.80
2019-03-16T05:55:07.086Z,31.70
2019-03-16T05:57:35.947Z,31.00
2019-03-16T06:00:13.993Z,31.80
2019-03-16T06:02:42.917Z,31.70
2019-03-16T06:05:11.872Z,31.40
2019-03-16T06:07:40.713Z,31.00
2019-03-16T06:10:11.021Z,31.90
2019-03-16T06:12:39.875Z,31.40
2019-03-16T06:15:10.195Z,31.30
2019-03-16T06:17:39.055Z,30.90
2019-03-16T06:20:11.163Z,31.20
2019-03-16T06:22:40.035Z,31.80
2019-03-16T06:25:09.750Z,31.80
2019-03-16T06:27:38.640Z,31.10
2019-03-16T06:30:12.191Z,31.70
2019-03-16T06:32:41.069Z,31.70
2019-03-16T06:35:23.378Z,31.70
2019-03-16T06:37:40.487Z,30.90
2019-03-16T06:40:10.569Z,31.80
2019-03-16T06:42:39.374Z,32.20
2019-03-16T06:45:11.925Z,32.10
2019-03-16T06:47:40.858Z,31.60
2019-03-16T06:50:12.715Z,32.60
2019-03-16T06:52:41.599Z,32.70
2019-03-16T06:55:10.503Z,32.80
2019-03-16T06:57:39.376Z,31.70
2019-03-16T07:00:14.682Z,32.60
2019-03-16T07:02:43.584Z,32.60
2019-03-16T07:05:13.275Z,32.30
2019-03-16T07:07:42.159Z,31.80
2019-03-16T07:10:14.256Z,32.60
2019-03-16T07:12:43.092Z,32.70
2019-03-16T07:15:14.028Z,32.60
2019-03-16T07:17:42.968Z,31.90
2019-03-16T07:20:15.645Z,32.60
2019-03-16T07:22:44.616Z,32.50
2019-03-16T07:25:13.499Z,32.60
2019-03-16T07:27:42.436Z,31.80
2019-03-16T07:30:14.898Z,32.40
2019-03-16T07:32:43.704Z,32.30
2019-03-16T07:35:12.633Z,32.10
2019-03-16T07:37:41.572Z,31.70
2019-03-16T07:40:12.187Z,32.30
2019-03-16T07:42:41.124Z,32.80
2019-03-16T07:45:12.079Z,32.70
2019-03-16T07:47:40.961Z,32.40
2019-03-16T07:50:11.646Z,33.50
2019-03-16T07:52:40.590Z,33.60
2019-03-16T07:55:09.965Z,33.70
2019-03-16T07:57:40.595Z,33.10
2019-03-16T08:00:11.793Z,34.30
2019-03-16T08:02:40.765Z,34.90
2019-03-16T08:05:18.267Z,35.00
2019-03-16T08:07:40.597Z,33.90
2019-03-16T08:10:12.573Z,35.10
2019-03-16T08:12:41.444Z,35.30
2019-03-16T08:15:11.447Z,35.60
2019-03-16T08:17:40.329Z,34.60
2019-03-16T08:20:10.610Z,36.10
2019-03-16T08:22:39.482Z,36.40
2019-03-16T08:25:08.965Z,36.50
2019-03-16T08:27:37.896Z,35.60
2019-03-16T08:30:09.373Z,36.60
2019-03-16T08:32:38.300Z,36.70
2019-03-16T08:35:08.227Z,36.80
2019-03-16T08:37:37.156Z,35.90
2019-03-16T08:40:10.849Z,36.80
2019-03-16T08:42:39.710Z,36.90
2019-03-16T08:45:09.790Z,37.20
2019-03-16T08:47:38.647Z,36.40
2019-03-16T08:50:09.675Z,37.40
2019-03-16T08:52:38.537Z,37.50
2019-03-16T08:55:08.521Z,37.50
2019-03-16T08:57:37.388Z,36.60
2019-03-16T09:00:09.245Z,37.90
2019-03-16T09:02:38.118Z,37.80
2019-03-16T09:05:08.004Z,37.80
2019-03-16T09:07:36.978Z,37.30
2019-03-16T09:10:08.185Z,38.60
2019-03-16T09:12:37.062Z,38.70
2019-03-16T09:15:08.982Z,38.60
2019-03-16T09:17:37.871Z,37.70
2019-03-16T09:20:08.678Z,39.00
2019-03-16T09:22:37.536Z,39.30
2019-03-16T09:25:08.527Z,39.60
2019-03-16T09:27:37.396Z,38.50
2019-03-16T09:30:14.260Z,39.80
2019-03-16T09:32:43.290Z,40.20
2019-03-16T09:35:12.718Z,39.90
2019-03-16T09:37:41.524Z,39.60
2019-03-16T09:40:10.843Z,40.90
2019-03-16T09:42:39.718Z,41.20
2019-03-16T09:45:10.568Z,41.30
2019-03-16T09:47:39.414Z,40.90
2019-03-16T09:50:29.937Z,41.70
2019-03-16T09:52:58.914Z,40.40
2019-03-16T09:55:27.789Z,40.80
2019-03-16T09:57:56.596Z,41.00
2019-03-16T10:00:26.418Z,42.00
2019-03-16T10:02:55.316Z,42.00
2019-03-16T10:05:24.869Z,42.20
2019-03-16T10:07:53.658Z,41.10
2019-03-16T10:10:22.616Z,42.50
2019-03-16T10:12:51.469Z,42.70
2019-03-16T10:15:20.436Z,43.00
2019-03-16T10:17:49.328Z,42.20
2019-03-16T10:20:18.199Z,43.30
2019-03-16T10:22:47.053Z,43.30
2019-03-16T10:25:15.955Z,43.20
2019-03-16T10:27:44.797Z,42.40
2019-03-16T10:30:14.628Z,43.30
2019-03-16T10:32:43.552Z,43.50
2019-03-16T10:35:12.423Z,43.50
2019-03-16T10:37:41.262Z,42.80
2019-03-16T10:40:11.581Z,43.90
2019-03-16T10:42:40.469Z,44.00
2019-03-16T10:45:10.639Z,44.30
2019-03-16T10:47:39.557Z,43.40
2019-03-16T10:50:13.453Z,44.60
2019-03-16T10:52:42.370Z,44.60
2019-03-16T10:55:11.326Z,44.70
2019-03-16T10:57:40.250Z,43.80
2019-03-16T11:00:15.322Z,44.90
2019-03-16T11:02:44.239Z,45.00
2019-03-16T11:05:13.308Z,45.20
2019-03-16T11:07:42.139Z,44.40
2019-03-16T11:10:16.929Z,45.50
2019-03-16T11:12:45.792Z,45.60
2019-03-16T11:15:15.039Z,45.50
2019-03-16T11:17:43.913Z,44.90
2019-03-16T11:20:15.469Z,45.90
2019-03-16T11:22:44.325Z,46.30
2019-03-16T11:25:13.132Z,46.30
2019-03-16T11:27:42.060Z,45.40
2019-03-16T11:30:13.267Z,46.40
2019-03-16T11:32:42.195Z,46.30
2019-03-16T11:35:11.916Z,46.40
2019-03-16T11:37:40.766Z,45.50
2019-03-16T11:40:14.879Z,46.20
2019-03-16T11:42:43.683Z,46.30
2019-03-16T11:45:12.714Z,46.30
2019-03-16T11:47:41.495Z,45.30
2019-03-16T11:50:11.515Z,46.10
2019-03-16T11:52:40.382Z,45.80
2019-03-16T11:55:10.107Z,45.80
2019-03-16T11:57:38.874Z,44.90
2019-03-16T12:00:17.156Z,44.70
2019-03-16T12:02:46.008Z,44.40
2019-03-16T12:05:15.010Z,43.70
2019-03-16T12:07:43.789Z,43.50
2019-03-16T12:10:13.728Z,43.10
2019-03-16T12:12:42.519Z,43.30
2019-03-16T12:15:12.452Z,42.90
2019-03-16T12:17:41.373Z,42.70
2019-03-16T12:20:19.202Z,42.80
2019-03-16T12:22:48.048Z,42.20
2019-03-16T12:25:16.931Z,42.30
2019-03-16T12:27:45.780Z,42.10
2019-03-16T12:30:15.525Z,41.80
2019-03-16T12:32:44.381Z,41.80
2019-03-16T12:35:13.327Z,41.50
2019-03-16T12:37:42.196Z,41.20
2019-03-16T12:40:12.916Z,41.40
2019-03-16T12:42:41.775Z,40.90
2019-03-16T12:45:15.172Z,40.60
2019-03-16T12:47:44.017Z,40.60
2019-03-16T12:50:13.337Z,40.80
2019-03-16T12:52:42.273Z,40.20
2019-03-16T12:55:11.912Z,40.40
2019-03-16T12:57:41.011Z,40.30
2019-03-16T13:00:12.942Z,40.00
2019-03-16T13:02:41.932Z,40.20
2019-03-16T13:05:10.958Z,40.30
2019-03-16T13:07:39.873Z,39.60
2019-03-16T13:10:18.809Z,39.50
2019-03-16T13:12:47.667Z,39.50
2019-03-16T13:15:16.618Z,39.50
2019-03-16T13:17:45.568Z,38.90
2019-03-16T13:20:15.449Z,38.70
2019-03-16T13:22:44.381Z,38.80
2019-03-16T13:25:13.337Z,38.20
2019-03-16T13:27:42.197Z,38.20
2019-03-16T13:30:16.309Z,38.20
2019-03-16T13:32:45.170Z,38.40
2019-03-16T13:35:14.189Z,38.20
2019-03-16T13:37:43.074Z,38.40
2019-03-16T13:40:15.928Z,38.30
2019-03-16T13:42:44.814Z,37.90
2019-03-16T13:45:13.944Z,38.50
2019-03-16T13:47:42.892Z,37.80
2019-03-16T13:50:18.783Z,37.80
2019-03-16T13:52:47.858Z,37.70
2019-03-16T13:55:16.784Z,37.60
2019-03-16T13:57:45.655Z,37.70
2019-03-16T14:00:17.290Z,37.30
2019-03-16T14:02:46.097Z,37.00
2019-03-16T14:05:15.093Z,37.10
2019-03-16T14:07:44.258Z,37.00
2019-03-16T14:10:30.228Z,36.90
2019-03-16T14:12:59.107Z,37.00
2019-03-16T14:15:28.022Z,36.60
2019-03-16T14:17:58.225Z,36.60
2019-03-16T14:20:28.510Z,36.80
2019-03-16T14:22:57.582Z,36.40
2019-03-16T14:25:26.447Z,36.00
2019-03-16T14:27:55.310Z,36.20
2019-03-16T14:30:39.916Z,36.10
2019-03-16T14:32:54.725Z,36.10
2019-03-16T14:35:23.572Z,36.10
2019-03-16T14:37:52.488Z,36.10
2019-03-16T14:40:21.420Z,38.80
2019-03-16T14:42:50.342Z,36.40
2019-03-16T14:45:19.402Z,36.20
2019-03-16T14:47:48.365Z,36.50
2019-03-16T14:50:25.252Z,36.80
2019-03-16T14:52:54.270Z,36.60
2019-03-16T14:55:23.108Z,36.80
2019-03-16T14:57:51.994Z,36.10
2019-03-16T15:00:22.297Z,36.70
2019-03-16T15:02:51.114Z,36.60
2019-03-16T15:05:19.996Z,36.80
2019-03-16T15:07:49.969Z,36.80
2019-03-16T15:10:19.387Z,36.90
2019-03-16T15:12:48.348Z,36.60
2019-03-16T15:15:23.332Z,36.40
2019-03-16T15:17:52.267Z,36.20
2019-03-16T15:20:21.143Z,35.90
2019-03-16T15:22:50.002Z,36.20
2019-03-16T15:25:18.853Z,36.00
2019-03-16T15:27:47.749Z,36.10
2019-03-16T15:30:20.605Z,36.30
2019-03-16T15:32:49.515Z,36.30
2019-03-16T15:35:18.361Z,36.30
2019-03-16T15:37:47.261Z,35.90
2019-03-16T15:40:16.479Z,36.20
2019-03-16T15:42:45.430Z,36.00
2019-03-16T15:45:19.753Z,35.80
2019-03-16T15:47:48.679Z,35.70
2019-03-16T15:50:17.689Z,35.70
2019-03-16T15:52:48.003Z,36.00
2019-03-16T15:55:16.886Z,35.10
2019-03-16T15:57:45.770Z,34.80
2019-03-16T16:00:20.833Z,34.90
2019-03-16T16:02:49.693Z,34.70
2019-03-16T16:05:18.615Z,34.50
2019-03-16T16:07:47.521Z,34.50
2019-03-16T16:10:17.517Z,34.10
2019-03-16T16:12:47.063Z,34.20
2019-03-16T16:15:16.193Z,34.00
2019-03-16T16:17:45.014Z,33.80
2019-03-16T16:20:15.096Z,35.00
2019-03-16T16:22:44.063Z,33.70
2019-03-16T16:25:13.748Z,33.20
2019-03-16T16:27:42.688Z,33.30
2019-03-16T16:30:20.907Z,33.10
2019-03-16T16:32:49.864Z,33.10
2019-03-16T16:35:18.724Z,32.50
2019-03-16T16:37:47.704Z,32.50
2019-03-16T16:40:17.673Z,32.60
2019-03-16T16:42:46.550Z,32.50
2019-03-16T16:45:16.449Z,32.50
2019-03-16T16:47:45.395Z,32.40
2019-03-16T16:50:18.508Z,32.30
2019-03-16T16:52:47.462Z,32.10
2019-03-16T16:55:16.378Z,32.10
2019-03-16T16:57:45.250Z,31.80
2019-03-16T17:00:20.447Z,31.80
2019-03-16T17:02:49.306Z,31.60
2019-03-16T17:05:18.301Z,31.20
2019-03-16T17:07:47.157Z,31.10
2019-03-16T17:10:16.365Z,31.20
2019-03-16T17:12:45.504Z,31.00
2019-03-16T17:15:21.254Z,31.90
2019-03-16T17:17:50.103Z,31.10
2019-03-16T17:20:19.065Z,31.10
2019-03-16T17:22:47.912Z,31.40
2019-03-16T17:25:18.451Z,31.50
2019-03-16T17:27:47.311Z,31.50
2019-03-16T17:30:24.823Z,31.80
2019-03-16T17:32:53.675Z,31.80
2019-03-16T17:35:22.759Z,32.00
2019-03-16T17:37:51.620Z,32.20
2019-03-16T17:40:20.525Z,32.30
2019-03-16T17:42:49.445Z,32.50
2019-03-16T17:45:18.332Z,32.70
2019-03-16T17:47:47.208Z,32.90
2019-03-16T17:50:16.926Z,33.10
2019-03-16T17:52:45.807Z,33.00
2019-03-16T17:55:15.714Z,33.10
2019-03-16T17:57:45.465Z,33.20
2019-03-16T18:00:17.265Z,33.20
2019-03-16T18:02:51.682Z,33.50
2019-03-16T18:05:16.784Z,33.60
2019-03-16T18:07:45.728Z,33.60
2019-03-16T18:10:15.259Z,33.70
2019-03-16T18:12:44.175Z,33.70
2019-03-16T18:15:16.049Z,33.80
2019-03-16T18:17:44.991Z,33.20
2019-03-16T18:20:17.469Z,33.90
2019-03-16T18:22:46.245Z,33.80
2019-03-16T18:25:15.297Z,33.80
2019-03-16T18:27:44.207Z,33.20
2019-03-16T18:30:16.995Z,33.70
2019-03-16T18:32:45.795Z,33.60
2019-03-16T18:35:14.815Z,33.50
2019-03-16T18:37:43.909Z,32.70
2019-03-16T18:40:13.739Z,33.20
2019-03-16T18:42:42.832Z,33.20
2019-03-16T18:45:17.189Z,33.20
2019-03-16T18:47:46.107Z,32.50
2019-03-16T18:50:15.006Z,32.80
2019-03-16T18:52:43.848Z,32.70
2019-03-16T18:55:13.399Z,32.80
2019-03-16T18:57:42.325Z,32.60
2019-03-16T19:00:16.816Z,32.50
2019-03-16T19:02:45.665Z,32.50
2019-03-16T19:05:14.686Z,32.40
2019-03-16T19:07:43.680Z,31.90
2019-03-16T19:10:16.718Z,32.30
2019-03-16T19:12:45.689Z,32.30
2019-03-16T19:15:15.841Z,32.20
2019-03-16T19:17:57.480Z,31.80
2019-03-16T19:20:16.264Z,32.20
2019-03-16T19:22:45.048Z,32.20
2019-03-16T19:25:18.578Z,32.20
2019-03-16T19:27:47.428Z,32.20
2019-03-16T19:30:17.108Z,32.10
2019-03-16T19:32:46.135Z,30.50
2019-03-16T19:35:15.086Z,31.90
2019-03-16T19:37:44.012Z,31.70
2019-03-16T19:40:20.780Z,31.60
2019-03-16T19:42:49.557Z,31.80
2019-03-16T19:45:18.441Z,31.90
2019-03-16T19:47:47.362Z,31.30
2019-03-16T19:50:16.895Z,31.60
2019-03-16T19:52:45.976Z,30.50
2019-03-16T19:55:15.155Z,31.70
2019-03-16T19:57:44.180Z,31.10
2019-03-16T20:00:16.834Z,31.40
2019-03-16T20:02:50.718Z,31.60
2019-03-16T20:05:16.347Z,31.40
2019-03-16T20:07:45.191Z,31.00
2019-03-16T20:10:18.305Z,31.40
2019-03-16T20:12:47.297Z,31.40
2019-03-16T20:15:16.609Z,31.50
2019-03-16T20:17:45.475Z,31.70
2019-03-16T20:20:15.275Z,31.50
2019-03-16T20:22:44.351Z,31.50
2019-03-16T20:25:14.495Z,31.50
2019-03-16T20:27:43.447Z,30.90
2019-03-16T20:30:13.777Z,31.50
2019-03-16T20:32:42.664Z,31.50
2019-03-16T20:35:11.749Z,31.60
2019-03-16T20:37:40.642Z,30.90
2019-03-16T20:40:14.666Z,31.50
2019-03-16T20:42:43.828Z,31.50
2019-03-16T20:45:13.205Z,31.50
2019-03-16T20:47:42.209Z,31.20
2019-03-16T20:50:20.730Z,31.80
2019-03-16T20:52:49.618Z,31.70
2019-03-16T20:55:18.473Z,31.70
2019-03-16T20:57:47.424Z,31.90
2019-03-16T21:00:17.597Z,31.80
2019-03-16T21:02:46.545Z,31.80
2019-03-16T21:05:15.462Z,31.70
2019-03-16T21:07:44.352Z,31.90
2019-03-16T21:10:14.359Z,31.70
2019-03-16T21:12:43.392Z,31.80
2019-03-16T21:15:17.234Z,30.60
2019-03-16T21:17:46.177Z,31.50
2019-03-16T21:20:16.167Z,31.50
2019-03-16T21:22:45.046Z,31.60
2019-03-16T21:25:17.258Z,31.80
2019-03-16T21:27:47.045Z,31.70
2019-03-16T21:30:18.331Z,31.70
2019-03-16T21:32:47.226Z,31.60
2019-03-16T21:35:16.081Z,31.50
2019-03-16T21:37:45.035Z,31.50
2019-03-16T21:40:14.930Z,31.60
2019-03-16T21:42:43.876Z,31.50
2019-03-16T21:45:13.399Z,31.60
2019-03-16T21:47:42.454Z,31.00
2019-03-16T21:50:12.457Z,31.60
2019-03-16T21:52:44.185Z,31.60
2019-03-16T21:55:12.744Z,31.50
2019-03-16T21:57:41.689Z,31.00
2019-03-16T22:00:18.808Z,31.60
2019-03-16T22:02:47.648Z,31.60
2019-03-16T22:05:16.494Z,31.60
2019-03-16T22:07:45.387Z,31.60
2019-03-16T22:10:17.630Z,31.60
2019-03-16T22:12:46.590Z,31.50
2019-03-16T22:15:16.391Z,31.60
2019-03-16T22:17:45.445Z,31.60
2019-03-16T22:20:18.509Z,31.60
2019-03-16T22:22:47.420Z,31.60
2019-03-16T22:25:16.416Z,31.70
2019-03-16T22:27:45.226Z,31.00
2019-03-16T22:30:17.449Z,31.90
2019-03-16T22:32:46.468Z,31.90
2019-03-16T22:35:15.258Z,31.80
2019-03-16T22:37:44.133Z,31.40
2019-03-16T22:40:14.908Z,32.00
2019-03-16T22:42:44.050Z,32.10
2019-03-16T22:45:13.862Z,32.10
2019-03-16T22:47:42.793Z,31.40
2019-03-16T22:50:20.657Z,32.10
2019-03-16T22:52:49.563Z,32.20
2019-03-16T22:55:18.423Z,32.20
2019-03-16T22:57:47.329Z,31.60
2019-03-16T23:00:40.222Z,32.20
2019-03-16T23:03:09.121Z,32.20
2019-03-16T23:05:37.961Z,32.30
2019-03-16T23:08:06.909Z,32.20
2019-03-16T23:10:35.759Z,32.20
2019-03-16T23:13:04.713Z,32.30
2019-03-16T23:15:33.569Z,32.30
2019-03-16T23:18:02.459Z,31.60
2019-03-16T23:20:31.297Z,32.20
2019-03-16T23:23:00.118Z,32.20
2019-03-16T23:25:28.988Z,32.20
2019-03-16T23:27:57.957Z,32.20
2019-03-16T23:30:26.843Z,32.30
2019-03-16T23:32:55.697Z,32.30
2019-03-16T23:35:24.549Z,32.50
2019-03-16T23:37:53.357Z,32.40
2019-03-16T23:40:22.127Z,32.40
2019-03-16T23:42:51.009Z,32.40
2019-03-16T23:45:19.867Z,32.30
2019-03-16T23:47:48.714Z,31.70
2019-03-16T23:50:17.606Z,32.30
2019-03-16T23:52:46.533Z,32.40
2019-03-16T23:55:15.537Z,32.50
2019-03-16T23:57:44.398Z,32.00
